Time;durP1;ratioP1;P1;durP2;ratioP2;P2;SDS_P1;SDS_P2;PMS_P1;PMS_P2;Temp;Humidity;BMP_temperature;BMP_pressure;BME280_temperature;BME280_humidity;BME280_pressure;Samples;Min_cycle;Max_cycle;Signal;HPM_P1;HPM_P2
2023/09/01 00:00:44;;;;;;;2.97;1.40;;;18.70;99.90;;;;;;5014776;28;20385;-75
2023/09/01 00:03:10;;;;;;;4.68;1.67;;;18.60;99.90;;;;;;5011242;28;20053;-76
2023/09/01 00:05:37;;;;;;;4.35;1.75;;;18.50;99.90;;;;;;5014196;28;20395;-76
2023/09/01 00:08:04;;;;;;;3.65;1.45;;;18.40;99.90;;;;;;5013885;28;20026;-75
2023/09/01 00:10:29;;;;;;;3.55;1.38;;;18.30;99.90;;;;;;5014946;28;20491;-76
2023/09/01 00:12:56;;;;;;;3.13;1.48;;;18.20;99.90;;;;;;5013018;28;20033;-75
2023/09/01 00:15:22;;;;;;;5.57;1.50;;;18.20;99.90;;;;;;4997780;28;20037;-76
2023/09/01 00:17:48;;;;;;;4.00;1.60;;;18.20;99.90;;;;;;5012223;28;20037;-76
2023/09/01 00:20:14;;;;;;;3.63;1.67;;;18.30;99.90;;;;;;5011945;28;20383;-76
2023/09/01 00:22:40;;;;;;;4.97;1.60;;;18.20;99.90;;;;;;5014572;28;20029;-76
2023/09/01 00:25:06;;;;;;;4.38;1.50;;;18.30;99.90;;;;;;5010422;28;20057;-76
2023/09/01 00:27:31;;;;;;;3.00;1.50;;;18.30;99.90;;;;;;5014568;28;20049;-76
2023/09/01 00:29:57;;;;;;;4.43;1.77;;;18.20;99.90;;;;;;5015180;28;20026;-76
2023/09/01 00:32:23;;;;;;;4.47;1.73;;;18.20;99.90;;;;;;5013758;28;20056;-76
2023/09/01 00:34:56;;;;;;;4.70;1.45;;;18.00;99.90;;;;;;5013744;28;20062;-76
2023/09/01 00:37:22;;;;;;;4.13;1.73;;;18.00;99.90;;;;;;5014502;28;20392;-76
2023/09/01 00:39:47;;;;;;;2.47;1.52;;;18.00;99.90;;;;;;5014033;28;20026;-76
2023/09/01 00:42:13;;;;;;;5.78;1.75;;;17.90;99.90;;;;;;5001951;28;20029;-76
2023/09/01 00:44:39;;;;;;;5.20;1.65;;;17.90;99.90;;;;;;4995332;28;20041;-76
2023/09/01 00:47:05;;;;;;;7.00;2.17;;;17.90;99.90;;;;;;5004517;28;20045;-76
2023/09/01 00:49:31;;;;;;;3.97;1.73;;;17.80;99.90;;;;;;5014785;28;20052;-76
2023/09/01 00:51:58;;;;;;;7.78;2.13;;;17.80;99.90;;;;;;5013058;28;20038;-75
2023/09/01 00:54:23;;;;;;;3.60;1.85;;;17.70;99.90;;;;;;5013750;28;20503;-76
2023/09/01 00:56:52;;;;;;;5.55;1.95;;;17.70;99.90;;;;;;5011501;28;20060;-76
2023/09/01 00:59:18;;;;;;;3.85;1.80;;;17.60;99.90;;;;;;5002106;28;20077;-75
2023/09/01 01:01:44;;;;;;;7.25;1.75;;;17.60;99.90;;;;;;5013998;28;20447;-76
2023/09/01 01:04:11;;;;;;;3.60;1.60;;;17.70;99.90;;;;;;5013458;28;20400;-76
2023/09/01 01:06:47;;;;;;;3.63;1.90;;;17.60;99.90;;;;;;5013719;28;20045;-76
2023/09/01 01:09:55;;;;;;;5.35;1.80;;;17.60;99.90;;;;;;5013582;28;20487;-76
2023/09/01 01:12:27;;;;;;;4.10;1.90;;;17.60;99.90;;;;;;4987222;28;20042;-76
2023/09/01 01:14:54;;;;;;;3.00;1.60;;;17.70;99.90;;;;;;5010708;28;20038;-76
2023/09/01 01:17:21;;;;;;;3.20;1.65;;;17.70;99.90;;;;;;5013122;28;20392;-76
2023/09/01 01:19:51;;;;;;;3.40;1.75;;;17.80;99.90;;;;;;5011778;28;20033;-76
2023/09/01 01:22:28;;;;;;;5.30;1.75;;;17.60;99.90;;;;;;5013762;28;20034;-76
2023/09/01 01:24:54;;;;;;;3.55;1.73;;;17.60;99.90;;;;;;5011344;28;20117;-76
2023/09/01 01:27:20;;;;;;;4.93;1.90;;;17.50;99.90;;;;;;5012713;28;20125;-76
2023/09/01 01:29:47;;;;;;;3.45;1.75;;;17.60;99.90;;;;;;5011745;28;20507;-76
2023/09/01 01:32:14;;;;;;;5.90;1.83;;;17.50;99.90;;;;;;5013609;28;20030;-76
2023/09/01 01:34:47;;;;;;;4.72;1.80;;;17.50;99.90;;;;;;5011192;28;20026;-76
2023/09/01 01:37:35;;;;;;;5.78;1.77;;;17.50;99.90;;;;;;5011743;28;20049;-76
2023/09/01 01:40:05;;;;;;;3.92;1.90;;;17.40;99.90;;;;;;5010858;28;20026;-76
2023/09/01 01:42:33;;;;;;;3.00;1.80;;;17.40;99.90;;;;;;5009971;28;20480;-76
2023/09/01 01:45:00;;;;;;;6.63;1.63;;;17.30;99.90;;;;;;5012813;28;20438;-76
2023/09/01 01:47:27;;;;;;;4.97;2.22;;;17.40;99.90;;;;;;5010531;28;20026;-75
2023/09/01 01:49:52;;;;;;;6.13;1.75;;;17.30;99.90;;;;;;5010206;28;20480;-76
2023/09/01 01:52:18;;;;;;;2.92;1.85;;;17.30;99.90;;;;;;5011733;28;20037;-75
2023/09/01 01:54:44;;;;;;;2.60;1.40;;;17.30;99.90;;;;;;5011551;28;20562;-76
2023/09/01 01:57:14;;;;;;;3.47;1.58;;;17.30;99.90;;;;;;5009312;28;20077;-75
2023/09/01 01:59:40;;;;;;;6.40;1.98;;;17.20;99.90;;;;;;5011572;28;20034;-76
2023/09/01 02:02:06;;;;;;;4.25;1.58;;;17.20;99.90;;;;;;5013031;28;20539;-75
2023/09/01 02:04:31;;;;;;;3.15;1.73;;;17.10;99.90;;;;;;5012354;28;20049;-76
2023/09/01 02:06:57;;;;;;;5.55;2.00;;;17.10;99.90;;;;;;5011778;28;20538;-76
2023/09/01 02:09:23;;;;;;;3.83;1.70;;;17.00;99.90;;;;;;5008738;28;20033;-76
2023/09/01 02:11:49;;;;;;;5.15;1.80;;;17.00;99.90;;;;;;5011486;28;20034;-75
2023/09/01 02:14:14;;;;;;;5.75;1.92;;;17.00;99.90;;;;;;5011670;28;20030;-76
2023/09/01 02:16:40;;;;;;;4.43;1.80;;;17.00;99.90;;;;;;5012046;28;20022;-76
2023/09/01 02:19:09;;;;;;;4.25;1.98;;;17.00;99.90;;;;;;5010592;28;20033;-76
2023/09/01 02:21:34;;;;;;;3.50;1.98;;;17.00;99.90;;;;;;5011590;28;20026;-76
2023/09/01 02:24:00;;;;;;;5.72;1.70;;;16.90;99.90;;;;;;5011415;28;20040;-76
2023/09/01 02:26:26;;;;;;;6.95;1.63;;;16.90;99.90;;;;;;4997326;28;20034;-76
2023/09/01 02:28:51;;;;;;;5.05;2.05;;;16.80;99.90;;;;;;5010651;28;20029;-76
2023/09/01 02:31:18;;;;;;;4.68;1.80;;;16.90;99.90;;;;;;5010964;28;20033;-76
2023/09/01 02:33:44;;;;;;;3.75;1.80;;;16.90;99.90;;;;;;5012781;28;20036;-76
2023/09/01 02:36:29;;;;;;;4.45;1.70;;;16.90;99.90;;;;;;5013004;28;20030;-76
2023/09/01 02:38:55;;;;;;;6.18;1.70;;;16.90;99.90;;;;;;5012989;28;20030;-76
2023/09/01 02:41:22;;;;;;;4.57;1.88;;;16.90;99.90;;;;;;5011765;28;20100;-76
2023/09/01 02:43:48;;;;;;;4.38;2.63;;;16.80;99.90;;;;;;5010455;28;20033;-76
2023/09/01 02:46:13;;;;;;;5.85;2.72;;;16.90;99.90;;;;;;5010917;28;20033;-76
2023/09/01 02:48:39;;;;;;;7.60;2.08;;;16.90;99.90;;;;;;5013045;28;20037;-76
2023/09/01 02:51:06;;;;;;;4.68;2.33;;;16.90;99.90;;;;;;5013111;28;20026;-76
2023/09/01 02:53:35;;;;;;;3.35;1.80;;;16.90;99.90;;;;;;5010850;28;20036;-76
2023/09/01 02:56:02;;;;;;;6.68;2.10;;;16.90;99.90;;;;;;5009703;28;20053;-76
2023/09/01 02:58:28;;;;;;;4.70;2.22;;;16.90;99.90;;;;;;5010798;28;20033;-76
2023/09/01 03:00:53;;;;;;;7.93;2.40;;;16.80;99.90;;;;;;5011634;28;20088;-76
2023/09/01 03:03:20;;;;;;;10.70;3.05;;;16.80;99.90;;;;;;5002759;28;20046;-76
2023/09/01 03:05:49;;;;;;;4.13;2.35;;;16.70;99.90;;;;;;4994470;28;20038;-76
2023/09/01 03:08:17;;;;;;;4.57;1.80;;;16.60;99.90;;;;;;4997154;28;20041;-75
2023/09/01 03:10:42;;;;;;;3.03;1.73;;;16.60;99.90;;;;;;5006040;28;20522;-76
2023/09/01 03:13:08;;;;;;;5.32;2.60;;;16.70;99.90;;;;;;5003733;28;20033;-76
2023/09/01 03:15:35;;;;;;;4.35;1.95;;;16.70;99.90;;;;;;5002528;28;20037;-76
2023/09/01 03:18:01;;;;;;;4.50;1.80;;;16.70;99.90;;;;;;5002576;28;20048;-75
2023/09/01 03:20:26;;;;;;;3.75;1.73;;;16.70;99.90;;;;;;5002706;28;20547;-76
2023/09/01 03:22:52;;;;;;;4.93;1.60;;;16.70;99.90;;;;;;5002185;28;20069;-76
2023/09/01 03:25:18;;;;;;;4.32;1.85;;;16.80;99.90;;;;;;5004524;28;20045;-75
2023/09/01 03:27:44;;;;;;;4.43;1.70;;;16.70;99.90;;;;;;5006475;28;20026;-76
2023/09/01 03:30:11;;;;;;;4.63;1.80;;;16.80;99.90;;;;;;5005675;28;20037;-76
2023/09/01 03:32:37;;;;;;;3.33;1.70;;;16.60;99.90;;;;;;5006553;28;20064;-75
2023/09/01 03:35:04;;;;;;;3.80;1.90;;;16.60;99.90;;;;;;5007801;28;20084;-76
2023/09/01 03:37:30;;;;;;;5.30;1.80;;;16.60;99.90;;;;;;5006639;28;20064;-76
2023/09/01 03:39:56;;;;;;;5.25;1.95;;;16.70;99.90;;;;;;5007885;28;20057;-76
2023/09/01 03:42:21;;;;;;;3.45;1.58;;;16.80;99.90;;;;;;5005562;28;20092;-76
2023/09/01 03:44:47;;;;;;;3.10;1.42;;;16.70;99.90;;;;;;5006666;28;20121;-75
2023/09/01 03:47:14;;;;;;;3.33;1.75;;;16.70;99.90;;;;;;5005535;28;20041;-76
2023/09/01 03:49:40;;;;;;;7.15;1.90;;;16.80;99.90;;;;;;5004076;28;20026;-76
2023/09/01 03:52:06;;;;;;;6.82;2.25;;;16.60;99.90;;;;;;5005353;28;20168;-75
2023/09/01 03:54:31;;;;;;;4.30;2.00;;;16.70;99.90;;;;;;5005008;28;20033;-75
2023/09/01 03:56:57;;;;;;;4.90;1.55;;;16.60;99.90;;;;;;5007367;28;20037;-75
2023/09/01 03:59:22;;;;;;;3.28;1.83;;;16.60;99.90;;;;;;5005738;28;20033;-76
2023/09/01 04:01:48;;;;;;;6.03;2.00;;;16.60;99.90;;;;;;5006657;28;20088;-76
2023/09/01 04:04:14;;;;;;;4.03;1.73;;;16.60;99.90;;;;;;5006750;28;20404;-76
2023/09/01 04:06:40;;;;;;;5.28;1.75;;;16.60;99.90;;;;;;5007907;28;20483;-76
2023/09/01 04:09:06;;;;;;;3.58;1.80;;;16.50;99.90;;;;;;5008677;28;20100;-76
2023/09/01 04:11:32;;;;;;;5.88;1.50;;;16.50;99.90;;;;;;5006641;28;20034;-76
2023/09/01 04:13:58;;;;;;;3.28;2.25;;;16.50;99.90;;;;;;5005710;28;20117;-76
2023/09/01 04:16:24;;;;;;;5.10;1.90;;;16.40;99.90;;;;;;5004353;28;20368;-75
2023/09/01 04:18:51;;;;;;;4.10;1.55;;;16.40;99.90;;;;;;5005238;28;20029;-76
2023/09/01 04:21:17;;;;;;;2.75;1.50;;;16.40;99.90;;;;;;5006498;28;20029;-75
2023/09/01 04:23:43;;;;;;;3.92;2.08;;;16.40;99.90;;;;;;5006542;28;20029;-75
2023/09/01 04:26:08;;;;;;;4.00;1.70;;;16.50;99.90;;;;;;5006656;28;20045;-75
2023/09/01 04:28:34;;;;;;;6.35;2.85;;;16.50;99.90;;;;;;5003378;28;20728;-76
2023/09/01 04:31:02;;;;;;;3.80;1.73;;;16.40;99.90;;;;;;5007697;28;20044;-75
2023/09/01 04:33:28;;;;;;;4.20;1.80;;;16.20;99.90;;;;;;5007350;28;20117;-76
2023/09/01 04:35:59;;;;;;;5.72;2.10;;;16.20;99.90;;;;;;5005553;28;20495;-76
2023/09/01 04:38:25;;;;;;;4.70;1.67;;;16.20;99.90;;;;;;5005732;28;20735;-76
2023/09/01 04:40:58;;;;;;;3.78;1.50;;;16.30;99.90;;;;;;5007041;28;20132;-75
2023/09/01 04:43:27;;;;;;;9.35;2.65;;;16.30;99.90;;;;;;5006898;28;20472;-75
2023/09/01 04:45:57;;;;;;;3.85;2.08;;;16.30;99.90;;;;;;5006395;28;20116;-75
2023/09/01 04:48:23;;;;;;;5.28;1.77;;;16.20;99.90;;;;;;5005994;28;20480;-75
2023/09/01 04:50:49;;;;;;;9.50;1.90;;;16.30;99.90;;;;;;5007063;28;20026;-76
2023/09/01 04:53:15;;;;;;;3.03;1.88;;;16.20;99.90;;;;;;5006560;28;20034;-76
2023/09/01 04:55:42;;;;;;;3.45;1.92;;;16.20;99.90;;;;;;5001721;28;20425;-76
2023/09/01 04:58:07;;;;;;;4.05;2.00;;;16.20;99.90;;;;;;5004573;28;20743;-75
2023/09/01 05:00:34;;;;;;;6.13;1.73;;;16.20;99.90;;;;;;5007384;28;20049;-76
2023/09/01 05:03:03;;;;;;;5.25;1.80;;;16.30;99.90;;;;;;5005400;28;20057;-76
2023/09/01 05:05:29;;;;;;;4.45;1.90;;;16.20;99.90;;;;;;5007165;28;20033;-76
2023/09/01 05:07:54;;;;;;;5.72;1.90;;;16.20;99.90;;;;;;5005917;28;20380;-76
2023/09/01 05:10:20;;;;;;;3.45;1.75;;;16.20;99.90;;;;;;5005104;28;20103;-76
2023/09/01 05:12:46;;;;;;;3.90;1.90;;;16.40;99.90;;;;;;5004264;28;20119;-75
2023/09/01 05:15:12;;;;;;;7.53;1.92;;;16.50;99.90;;;;;;5004156;28;20041;-76
2023/09/01 05:17:38;;;;;;;5.93;1.88;;;16.60;99.90;;;;;;5004188;28;20057;-75
2023/09/01 05:20:07;;;;;;;5.38;1.90;;;16.60;99.90;;;;;;5004878;28;20061;-76
2023/09/01 05:22:33;;;;;;;3.22;1.80;;;16.60;99.90;;;;;;4987307;28;20057;-76
2023/09/01 05:24:59;;;;;;;4.45;2.00;;;16.70;99.90;;;;;;5005917;28;20045;-75
2023/09/01 05:27:25;;;;;;;4.50;1.98;;;16.70;99.90;;;;;;5006823;28;20038;-76
2023/09/01 05:29:51;;;;;;;3.47;1.75;;;16.80;99.90;;;;;;5003889;28;20044;-76
2023/09/01 05:32:17;;;;;;;3.72;1.77;;;16.70;99.90;;;;;;5004649;28;20034;-76
2023/09/01 05:34:43;;;;;;;3.58;1.63;;;16.80;99.90;;;;;;5006611;28;20160;-76
2023/09/01 05:37:11;;;;;;;3.60;1.80;;;16.80;99.90;;;;;;5005672;28;20112;-75
2023/09/01 05:39:38;;;;;;;3.47;2.15;;;16.90;99.90;;;;;;5005561;28;20156;-76
2023/09/01 05:42:04;;;;;;;4.10;2.05;;;16.90;99.90;;;;;;5003317;28;20061;-75
2023/09/01 05:44:30;;;;;;;4.30;2.08;;;16.90;99.90;;;;;;4998576;28;20061;-77
2023/09/01 05:46:56;;;;;;;6.10;2.10;;;16.70;99.90;;;;;;5007748;28;20133;-77
2023/09/01 05:49:23;;;;;;;3.40;2.00;;;16.70;99.90;;;;;;4992775;28;20120;-77
2023/09/01 05:51:49;;;;;;;3.97;1.95;;;16.80;99.90;;;;;;5012035;28;20049;-83
2023/09/01 05:54:15;;;;;;;6.30;1.88;;;16.80;99.90;;;;;;5004500;28;20022;-78
2023/09/01 05:56:41;;;;;;;4.43;1.80;;;16.90;99.90;;;;;;4993055;28;20589;-75
2023/09/01 05:59:07;;;;;;;7.63;2.35;;;16.90;99.90;;;;;;4989495;28;20033;-75
2023/09/01 06:01:35;;;;;;;5.22;1.85;;;16.90;99.90;;;;;;5004043;28;20099;-75
2023/09/01 06:04:03;;;;;;;3.15;1.63;;;16.80;99.90;;;;;;5004188;28;20058;-75
2023/09/01 06:06:31;;;;;;;6.57;2.20;;;16.70;99.90;;;;;;5004853;28;20033;-75
2023/09/01 06:08:57;;;;;;;3.42;1.95;;;16.60;99.90;;;;;;5005479;28;20109;-75
2023/09/01 06:11:23;;;;;;;3.30;1.60;;;16.70;99.90;;;;;;5004546;28;20488;-75
2023/09/01 06:13:49;;;;;;;3.50;1.85;;;16.90;99.90;;;;;;5004634;28;20099;-76
2023/09/01 06:16:15;;;;;;;4.97;2.17;;;17.00;99.90;;;;;;5005156;28;20104;-75
2023/09/01 06:18:40;;;;;;;5.18;2.13;;;17.00;99.90;;;;;;5001253;28;20041;-75
2023/09/01 06:21:06;;;;;;;4.32;2.17;;;17.00;99.90;;;;;;5004640;28;20480;-75
2023/09/01 06:23:32;;;;;;;4.60;1.77;;;17.00;99.90;;;;;;5003467;28;20706;-75
2023/09/01 06:25:57;;;;;;;5.07;1.83;;;17.10;99.90;;;;;;5004838;28;20742;-75
2023/09/01 06:28:23;;;;;;;4.93;2.00;;;17.10;99.90;;;;;;5005681;28;20033;-75
2023/09/01 06:30:49;;;;;;;3.22;1.90;;;17.20;99.90;;;;;;5003200;28;20032;-76
2023/09/01 06:33:15;;;;;;;4.70;1.70;;;17.20;99.90;;;;;;5005095;28;20034;-75
2023/09/01 06:35:42;;;;;;;6.50;1.70;;;17.30;99.90;;;;;;5004877;28;20033;-75
2023/09/01 06:38:08;;;;;;;6.18;2.53;;;17.30;99.90;;;;;;5004259;28;20313;-76
2023/09/01 06:40:34;;;;;;;6.30;2.28;;;17.30;99.90;;;;;;5005321;28;20448;-76
2023/09/01 06:43:01;;;;;;;5.30;2.40;;;17.30;99.90;;;;;;5005697;28;20180;-76
2023/09/01 06:45:27;;;;;;;4.03;1.80;;;17.50;99.90;;;;;;5005395;28;20049;-75
2023/09/01 06:47:55;;;;;;;3.25;1.88;;;18.10;99.90;;;;;;5005380;28;20395;-75
2023/09/01 06:50:24;;;;;;;4.38;2.35;;;19.60;99.90;;;;;;5004992;28;20514;-75
2023/09/01 06:52:50;;;;;;;5.82;1.88;;;21.70;99.90;;;;;;5004517;28;20025;-75
2023/09/01 06:55:17;;;;;;;4.10;2.05;;;23.20;99.90;;;;;;5003933;28;20487;-75
2023/09/01 06:57:43;;;;;;;4.25;1.80;;;23.80;99.40;;;;;;5005418;28;20030;-75
2023/09/01 07:00:09;;;;;;;3.83;1.88;;;24.20;98.80;;;;;;5004651;28;20036;-75
2023/09/01 07:02:35;;;;;;;4.30;2.15;;;25.00;98.50;;;;;;5005208;28;20030;-75
2023/09/01 07:05:02;;;;;;;4.10;2.20;;;25.70;97.20;;;;;;5005007;28;20057;-76
2023/09/01 07:07:27;;;;;;;3.53;1.83;;;25.90;96.90;;;;;;5005046;28;20037;-77
2023/09/01 07:09:53;;;;;;;4.32;1.83;;;25.90;96.40;;;;;;5005468;28;20038;-76
2023/09/01 07:12:19;;;;;;;6.05;2.15;;;26.50;96.20;;;;;;4999810;28;20087;-76
2023/09/01 07:14:44;;;;;;;4.32;2.08;;;27.00;95.80;;;;;;4998476;28;20026;-76
2023/09/01 07:17:13;;;;;;;6.32;1.92;;;27.70;95.40;;;;;;4993567;28;20079;-76
2023/09/01 07:19:41;;;;;;;7.18;1.60;;;27.80;94.70;;;;;;4999636;28;20034;-76
2023/09/01 07:22:06;;;;;;;4.63;1.80;;;27.60;94.70;;;;;;4994454;28;20033;-75
2023/09/01 07:24:32;;;;;;;4.78;1.67;;;27.20;94.90;;;;;;5000642;28;20038;-76
2023/09/01 07:26:58;;;;;;;3.75;1.98;;;27.20;94.60;;;;;;4995984;28;20046;-76
2023/09/01 07:29:24;;;;;;;3.92;1.98;;;24.40;96.90;;;;;;5001400;28;20033;-76
2023/09/01 07:31:49;;;;;;;4.60;2.17;;;22.00;99.90;;;;;;4998077;28;20040;-75
2023/09/01 07:34:15;;;;;;;4.88;1.67;;;20.70;99.90;;;;;;5008156;28;20029;-76
2023/09/01 07:36:41;;;;;;;3.10;1.60;;;20.00;99.90;;;;;;5007327;28;20104;-76
2023/09/01 07:39:06;;;;;;;3.25;1.60;;;19.70;99.90;;;;;;5007193;28;20100;-76
2023/09/01 07:41:33;;;;;;;3.83;2.03;;;19.60;99.90;;;;;;5008223;28;20030;-75
2023/09/01 07:43:59;;;;;;;4.85;1.58;;;19.60;99.90;;;;;;5006790;28;20534;-75
2023/09/01 07:46:25;;;;;;;3.30;1.63;;;19.50;99.90;;;;;;5002317;28;20038;-75
2023/09/01 07:48:50;;;;;;;4.35;2.13;;;19.50;99.90;;;;;;4994656;28;20029;-75
2023/09/01 07:51:16;;;;;;;3.75;1.63;;;19.30;99.90;;;;;;5010201;28;20060;-76
2023/09/01 07:53:41;;;;;;;3.72;1.60;;;19.30;99.90;;;;;;4997726;28;20409;-76
2023/09/01 07:56:10;;;;;;;4.55;1.67;;;19.30;99.90;;;;;;4997378;28;20034;-76
2023/09/01 07:58:36;;;;;;;4.65;2.03;;;19.30;99.90;;;;;;4993675;28;20575;-76
2023/09/01 08:01:01;;;;;;;3.10;1.70;;;19.40;99.90;;;;;;5010066;28;20033;-76
2023/09/01 08:03:27;;;;;;;3.97;1.95;;;19.40;99.90;;;;;;5010134;28;20045;-75
2023/09/01 08:05:53;;;;;;;5.32;1.80;;;19.20;99.90;;;;;;5010060;28;20033;-76
2023/09/01 08:08:18;;;;;;;6.05;1.70;;;19.50;99.90;;;;;;5010387;28;20042;-76
2023/09/01 08:10:44;;;;;;;4.75;2.03;;;19.60;99.90;;;;;;5005234;28;20113;-76
2023/09/01 08:13:10;;;;;;;5.18;1.70;;;19.70;99.90;;;;;;5008695;28;20037;-75
2023/09/01 08:15:36;;;;;;;4.40;1.85;;;19.80;99.90;;;;;;5009500;28;20034;-76
2023/09/01 08:18:02;;;;;;;6.80;2.13;;;19.70;99.90;;;;;;5010055;28;20528;-76
2023/09/01 08:20:28;;;;;;;4.93;1.75;;;19.60;99.90;;;;;;5009697;28;20026;-76
2023/09/01 08:22:53;;;;;;;4.57;2.03;;;19.60;99.90;;;;;;5010591;28;20732;-76
2023/09/01 08:25:20;;;;;;;5.80;2.00;;;19.70;99.90;;;;;;5009900;28;20030;-76
2023/09/01 08:27:46;;;;;;;5.70;2.20;;;19.70;99.90;;;;;;5008428;28;20045;-75
2023/09/01 08:30:13;;;;;;;4.50;1.92;;;19.80;99.90;;;;;;5010346;28;20419;-75
2023/09/01 08:32:44;;;;;;;7.07;1.95;;;19.90;99.90;;;;;;5009359;28;20479;-76
2023/09/01 08:35:11;;;;;;;3.22;1.60;;;19.90;99.90;;;;;;5009647;28;20052;-75
2023/09/01 08:37:38;;;;;;;4.57;1.67;;;20.00;99.90;;;;;;5003826;28;20133;-76
2023/09/01 08:40:05;;;;;;;3.95;2.03;;;20.10;99.90;;;;;;4991290;28;20376;-76
2023/09/01 08:42:32;;;;;;;4.13;2.15;;;20.10;99.90;;;;;;4991330;28;20022;-76
2023/09/01 08:44:59;;;;;;;3.88;1.88;;;20.20;99.90;;;;;;4998013;28;20029;-76
2023/09/01 08:47:28;;;;;;;4.53;1.88;;;20.10;99.90;;;;;;5010413;28;20464;-76
2023/09/01 08:49:55;;;;;;;5.72;1.77;;;20.70;99.90;;;;;;4992688;28;20535;-76
2023/09/01 08:52:22;;;;;;;5.05;1.80;;;24.10;99.90;;;;;;5010423;28;20569;-75
2023/09/01 08:54:49;;;;;;;10.68;2.47;;;25.70;99.50;;;;;;5009320;28;20091;-75
2023/09/01 08:57:14;;;;;;;4.05;1.90;;;26.40;97.50;;;;;;5010349;28;20026;-75
2023/09/01 08:59:42;;;;;;;2.92;1.70;;;26.60;96.80;;;;;;5009045;28;20049;-75
2023/09/01 09:02:08;;;;;;;5.65;2.17;;;26.90;96.50;;;;;;5007588;28;20033;-75
2023/09/01 09:04:34;;;;;;;6.35;1.92;;;27.00;96.20;;;;;;5009852;28;20073;-75
2023/09/01 09:07:20;;;;;;;3.53;1.67;;;27.50;96.00;;;;;;5007995;28;20046;-75
2023/09/01 09:09:57;;;;;;;5.47;2.17;;;27.60;96.30;;;;;;5008171;28;20088;-75
2023/09/01 09:12:33;;;;;;;4.70;1.67;;;27.40;95.50;;;;;;5008783;28;20132;-75
2023/09/01 09:14:59;;;;;;;5.95;2.05;;;27.10;95.70;;;;;;5007776;28;20037;-76
2023/09/01 09:17:42;;;;;;;5.78;2.22;;;27.70;95.70;;;;;;5008691;28;20040;-76
2023/09/01 09:20:09;;;;;;;4.60;1.83;;;27.70;95.30;;;;;;5009956;28;20150;-75
2023/09/01 09:22:54;;;;;;;7.13;1.88;;;27.80;96.10;;;;;;5007807;28;20037;-76
2023/09/01 09:25:30;;;;;;;8.45;2.00;;;28.10;95.70;;;;;;5004685;28;20030;-75
2023/09/01 09:27:58;;;;;;;10.52;2.17;;;27.70;96.10;;;;;;5000273;28;20040;-76
2023/09/01 09:30:28;;;;;;;3.42;1.65;;;27.00;95.90;;;;;;5008570;28;20030;-76
2023/09/01 09:33:07;;;;;;;4.72;2.15;;;25.90;96.60;;;;;;5007501;28;20072;-76
2023/09/01 09:35:34;;;;;;;4.57;1.90;;;24.50;97.50;;;;;;5009521;28;20502;-76
2023/09/01 09:38:00;;;;;;;3.85;1.70;;;23.90;98.40;;;;;;5008150;28;20038;-75
2023/09/01 09:40:27;;;;;;;5.28;2.25;;;23.50;99.30;;;;;;5007610;28;20029;-76
2023/09/01 09:42:56;;;;;;;4.45;1.90;;;23.30;98.80;;;;;;5010014;28;20034;-75
2023/09/01 09:45:21;;;;;;;4.13;2.05;;;23.20;99.00;;;;;;5011409;28;20030;-77
2023/09/01 09:47:49;;;;;;;6.63;2.00;;;23.10;99.00;;;;;;5001219;28;20042;-77
2023/09/01 09:50:17;;;;;;;5.47;1.98;;;23.40;99.60;;;;;;4995379;28;20031;-75
2023/09/01 09:52:50;;;;;;;4.03;2.10;;;23.50;98.90;;;;;;5004101;28;20557;-75
2023/09/01 09:55:49;;;;;;;4.28;1.63;;;23.80;98.80;;;;;;5009737;28;20030;-76
2023/09/01 09:58:17;;;;;;;4.30;1.98;;;24.10;98.90;;;;;;5003648;28;20153;-76
2023/09/01 10:01:02;;;;;;;7.43;2.15;;;24.30;98.70;;;;;;5007578;28;20114;-77
2023/09/01 10:03:31;;;;;;;4.47;2.20;;;24.10;97.90;;;;;;5007692;28;20064;-78
2023/09/01 10:05:58;;;;;;;7.03;2.08;;;23.90;98.90;;;;;;5008204;28;20046;-82
2023/09/01 10:08:24;;;;;;;5.97;2.22;;;24.00;98.30;;;;;;5009275;28;20499;-81
2023/09/01 10:10:50;;;;;;;9.95;1.90;;;24.00;98.50;;;;;;5008439;28;20029;-79
2023/09/01 10:13:17;;;;;;;3.65;1.80;;;23.90;98.60;;;;;;5008020;28;20070;-79
2023/09/01 10:15:45;;;;;;;4.57;1.77;;;23.90;98.20;;;;;;5009027;28;20021;-79
2023/09/01 10:18:10;;;;;;;3.83;1.70;;;23.80;98.80;;;;;;5003854;28;20045;-78
2023/09/01 10:20:42;;;;;;;7.60;1.80;;;24.20;98.50;;;;;;4989620;28;20030;-77
2023/09/01 10:23:09;;;;;;;4.22;1.90;;;24.20;98.80;;;;;;5001949;28;20045;-77
2023/09/01 10:25:35;;;;;;;2.97;1.33;;;24.20;97.70;;;;;;5008165;28;20105;-77
2023/09/01 10:28:06;;;;;;;6.78;1.70;;;23.90;98.60;;;;;;5006751;28;20491;-77
2023/09/01 10:30:36;;;;;;;3.75;1.75;;;24.10;98.60;;;;;;5008235;28;20101;-76
2023/09/01 10:33:05;;;;;;;5.38;1.98;;;24.30;97.80;;;;;;5013258;28;20044;-77
2023/09/01 10:35:50;;;;;;;8.18;2.05;;;24.50;98.40;;;;;;5011177;28;20026;-76
2023/09/01 10:38:19;;;;;;;4.90;1.88;;;24.70;97.80;;;;;;4988386;28;20428;-75
2023/09/01 10:40:55;;;;;;;5.55;2.40;;;24.70;97.60;;;;;;4988864;28;20037;-76
2023/09/01 10:43:39;;;;;;;4.28;1.65;;;24.90;98.20;;;;;;4988583;28;20050;-76
2023/09/01 10:46:16;;;;;;;;;;;24.70;97.30;;;;;;5007378;28;20036;-76
2023/09/01 10:48:52;;;;;;;4.18;1.92;;;24.80;98.20;;;;;;5008663;28;20256;-75
2023/09/01 10:51:24;;;;;;;7.55;2.75;;;24.50;97.20;;;;;;4990099;28;20025;-76
2023/09/01 10:53:53;;;;;;;5.97;2.05;;;24.10;97.70;;;;;;5006761;28;20025;-75
2023/09/01 10:56:20;;;;;;;3.30;1.60;;;24.30;98.10;;;;;;5008179;28;20053;-75
2023/09/01 10:58:56;;;;;;;5.75;2.17;;;24.50;98.00;;;;;;5008070;28;20030;-76
2023/09/01 11:01:31;;;;;;;4.50;1.77;;;24.80;97.70;;;;;;5007984;28;20061;-75
2023/09/01 11:04:19;;;;;;;8.98;2.10;;;24.80;97.60;;;;;;5007503;28;20042;-76
2023/09/01 11:06:59;;;;;;;5.28;1.83;;;25.30;98.10;;;;;;4998119;28;20042;-76
2023/09/01 11:09:34;;;;;;;5.88;2.08;;;25.70;97.80;;;;;;5010989;28;20112;-76
2023/09/01 11:12:04;;;;;;;5.82;2.10;;;25.80;97.50;;;;;;5011707;28;20034;-76
2023/09/01 11:14:34;;;;;;;4.65;2.03;;;25.60;97.80;;;;;;5010713;28;20049;-76
2023/09/01 11:17:01;;;;;;;5.47;1.77;;;25.60;97.50;;;;;;5008058;28;20029;-76
2023/09/01 11:19:27;;;;;;;5.65;2.10;;;25.70;96.70;;;;;;5010471;28;20121;-76
2023/09/01 11:21:53;;;;;;;6.95;1.95;;;25.90;97.30;;;;;;4991904;28;20145;-76
2023/09/01 11:24:22;;;;;;;5.68;1.92;;;25.90;97.20;;;;;;5010695;28;20068;-76
2023/09/01 11:26:51;;;;;;;7.55;2.08;;;25.80;96.60;;;;;;5010460;28;20049;-76
2023/09/01 11:29:19;;;;;;;5.25;2.17;;;25.80;96.40;;;;;;5011845;28;20029;-75
2023/09/01 11:31:45;;;;;;;5.00;1.75;;;25.70;96.80;;;;;;5010539;28;20040;-76
2023/09/01 11:34:12;;;;;;;5.38;2.10;;;26.00;96.50;;;;;;4992023;28;20034;-76
2023/09/01 11:36:49;;;;;;;10.73;2.22;;;25.90;96.50;;;;;;5005167;28;20025;-76
2023/09/01 11:39:15;;;;;;;5.32;2.10;;;26.00;96.50;;;;;;5010907;28;20041;-76
2023/09/01 11:41:42;;;;;;;4.15;1.70;;;25.90;96.40;;;;;;5010934;28;20038;-75
2023/09/01 11:44:08;;;;;;;6.25;2.28;;;26.00;96.80;;;;;;5011333;28;20042;-76
2023/09/01 11:46:36;;;;;;;4.57;2.03;;;26.30;97.00;;;;;;5009990;28;20041;-76
2023/09/01 11:49:02;;;;;;;8.25;2.35;;;26.20;96.80;;;;;;5008945;28;20033;-76
2023/09/01 11:51:37;;;;;;;3.83;2.00;;;26.00;97.00;;;;;;5009093;28;20029;-76
2023/09/01 11:54:03;;;;;;;5.53;2.20;;;26.00;97.40;;;;;;5009992;28;20037;-76
2023/09/01 11:56:29;;;;;;;6.30;2.05;;;26.00;97.40;;;;;;5011220;28;20056;-76
2023/09/01 11:58:56;;;;;;;4.20;2.30;;;25.70;97.30;;;;;;5010552;28;20065;-76
2023/09/01 12:01:31;;;;;;;6.35;2.40;;;25.80;97.20;;;;;;5008898;28;20021;-76
2023/09/01 12:04:05;;;;;;;5.65;2.67;;;26.10;97.60;;;;;;5008148;28;20068;-76
2023/09/01 12:06:31;;;;;;;5.32;2.65;;;26.10;97.40;;;;;;5010046;28;20104;-76
2023/09/01 12:09:29;;;;;;;6.95;2.38;;;25.90;97.20;;;;;;5008910;28;20064;-76
2023/09/01 12:12:02;;;;;;;3.38;1.90;;;26.10;97.80;;;;;;4994705;28;20042;-76
2023/09/01 12:14:30;;;;;;;6.88;2.45;;;26.20;97.10;;;;;;5010881;28;20030;-76
2023/09/01 12:16:57;;;;;;;5.20;1.80;;;26.10;97.00;;;;;;5008523;28;20036;-76
2023/09/01 12:19:25;;;;;;;8.65;2.00;;;26.20;96.90;;;;;;5009791;28;20026;-76
2023/09/01 12:21:52;;;;;;;5.38;2.28;;;26.30;96.90;;;;;;5008471;28;20034;-77
2023/09/01 12:24:18;;;;;;;6.88;2.10;;;26.30;96.60;;;;;;5010031;28;20036;-76
2023/09/01 12:26:43;;;;;;;4.00;1.70;;;26.20;97.10;;;;;;5008271;28;20042;-76
2023/09/01 12:29:09;;;;;;;5.40;1.92;;;26.30;96.50;;;;;;5009910;28;20150;-77
2023/09/01 12:31:35;;;;;;;6.20;2.20;;;26.20;96.60;;;;;;5009667;28;20390;-77
2023/09/01 12:34:00;;;;;;;6.57;2.40;;;26.20;96.90;;;;;;4995096;28;20021;-77
2023/09/01 12:36:26;;;;;;;5.30;1.85;;;26.40;97.00;;;;;;5009640;28;20029;-77
2023/09/01 12:38:52;;;;;;;5.65;2.10;;;26.30;97.10;;;;;;5010955;28;20026;-77
2023/09/01 12:41:18;;;;;;;9.23;2.17;;;26.10;97.00;;;;;;5011384;28;20054;-77
2023/09/01 12:43:44;;;;;;;5.47;2.03;;;26.10;97.40;;;;;;5010781;28;20068;-77
2023/09/01 12:46:09;;;;;;;4.00;1.92;;;26.30;96.90;;;;;;5009145;28;20048;-77
2023/09/01 12:48:35;;;;;;;5.15;2.30;;;26.20;97.20;;;;;;5010639;28;20038;-77
2023/09/01 12:51:01;;;;;;;6.97;2.40;;;26.10;96.60;;;;;;5009704;28;20038;-77